createdAt,value
2023-02-19T00:04:47.766Z,99823.75
2023-02-19T00:12:10.245Z,99819.34
2023-02-19T00:19:29.541Z,99822.78
2023-02-19T00:26:50.846Z,99821.53
2023-02-19T00:34:11.497Z,99812.19
2023-02-19T00:41:30.665Z,99814.13
2023-02-19T00:48:48.959Z,99807.13
2023-02-19T00:56:08.995Z,99794.34
2023-02-19T01:03:27.480Z,99796.00
2023-02-19T01:10:46.061Z,99782.63
2023-02-19T01:18:05.836Z,99771.66
2023-02-19T01:25:24.089Z,99773.84
2023-02-19T01:32:42.348Z,99767.66
2023-02-19T01:40:01.976Z,99753.09
2023-02-19T01:47:21.177Z,99755.72
2023-02-19T01:54:42.447Z,99756.13
2023-02-19T02:02:02.763Z,99739.09
2023-02-19T02:09:56.202Z,99704.47
2023-02-19T02:17:22.608Z,99705.59
2023-02-19T02:24:54.934Z,99712.84
2023-02-19T02:32:17.260Z,99692.41
2023-02-19T02:39:37.914Z,99684.72
2023-02-19T02:46:56.290Z,99682.38
2023-02-19T02:54:39.968Z,99686.50
2023-02-19T03:02:14.582Z,99677.56
2023-02-19T03:09:40.875Z,99679.50
2023-02-19T03:17:23.115Z,99674.66
2023-02-19T03:25:08.179Z,99676.75
2023-02-19T03:32:30.239Z,99662.31
2023-02-19T03:39:50.441Z,99655.03
2023-02-19T03:47:15.758Z,99630.88
2023-02-19T03:54:36.865Z,99636.09
2023-02-19T04:01:59.507Z,99649.53
2023-02-19T04:09:24.071Z,99645.72
2023-02-19T04:16:53.005Z,99651.72
2023-02-19T04:24:15.957Z,99636.88
2023-02-19T04:31:36.499Z,99648.28
2023-02-19T04:38:54.737Z,99643.88
2023-02-19T04:46:14.324Z,99637.28
2023-02-19T04:53:36.567Z,99626.59
2023-02-19T05:00:54.953Z,99617.09
2023-02-19T05:08:14.763Z,99603.66
2023-02-19T05:15:33.034Z,99607.78
2023-02-19T05:22:51.548Z,99612.19
2023-02-19T05:30:12.648Z,99605.69
2023-02-19T05:37:30.930Z,99610.53
2023-02-19T05:44:49.129Z,99600.94
2023-02-19T05:52:08.798Z,99609.84
2023-02-19T05:59:29.927Z,99610.00
2023-02-19T06:06:49.147Z,99610.13
2023-02-19T06:14:10.249Z,99601.06
2023-02-19T06:21:28.377Z,99620.69
2023-02-19T06:28:58.403Z,99641.97
2023-02-19T06:36:19.978Z,99643.91
2023-02-19T06:43:40.430Z,99648.44
2023-02-19T06:50:58.801Z,99647.19
2023-02-19T06:58:18.321Z,99652.19
2023-02-19T07:05:39.431Z,99647.78
2023-02-19T07:12:59.444Z,99650.41
2023-02-19T07:20:19.329Z,99673.44
2023-02-19T07:27:37.767Z,99684.72
2023-02-19T07:34:55.862Z,99699.63
2023-02-19T07:42:15.457Z,99714.22
2023-02-19T07:49:33.833Z,99728.91
2023-02-19T07:56:53.258Z,99750.41
2023-02-19T08:04:15.693Z,99766.84
2023-02-19T08:11:51.676Z,99775.06
2023-02-19T08:19:10.104Z,99782.03
2023-02-19T08:26:29.755Z,99800.97
2023-02-19T08:33:47.910Z,99812.31
2023-02-19T08:41:07.784Z,99815.38
2023-02-19T08:48:27.321Z,99833.69
2023-02-19T08:55:45.592Z,99836.53
2023-02-19T09:03:06.677Z,99848.91
2023-02-19T09:10:26.230Z,99837.28
2023-02-19T09:17:44.430Z,99851.56
2023-02-19T09:25:02.698Z,99869.69
2023-02-19T09:32:22.287Z,99880.75
2023-02-19T09:39:40.632Z,99881.28
2023-02-19T09:46:59.510Z,99896.78
2023-02-19T09:54:23.266Z,99895.38
2023-02-19T10:01:42.238Z,99900.22
2023-02-19T10:09:22.482Z,99918.75
2023-02-19T10:16:45.628Z,99938.38
2023-02-19T10:24:04.711Z,99953.38
2023-02-19T10:31:25.050Z,99971.06
2023-02-19T10:38:48.453Z,99985.69
2023-02-19T10:46:08.411Z,99987.97
2023-02-19T10:53:41.083Z,99996.19
2023-02-19T11:01:22.259Z,100003.44
2023-02-19T11:08:53.786Z,100015.09
2023-02-19T11:16:13.366Z,100023.09
2023-02-19T11:23:37.946Z,100028.59
2023-02-19T11:31:16.971Z,100038.34
2023-02-19T11:38:35.645Z,100038.03
2023-02-19T11:45:59.545Z,100024.78
2023-02-19T11:53:24.755Z,100019.59
2023-02-19T12:00:49.042Z,100018.16
2023-02-19T12:08:32.287Z,100016.50
2023-02-19T12:16:18.634Z,100034.03
2023-02-19T12:24:03.424Z,100042.50
2023-02-19T12:31:46.012Z,100065.75
2023-02-19T12:39:10.241Z,100082.16
2023-02-19T12:46:36.032Z,100088.31
2023-02-19T12:53:56.082Z,100095.72
2023-02-19T13:01:22.482Z,100118.31
2023-02-19T13:09:03.556Z,100136.91
2023-02-19T13:16:25.345Z,100131.94
2023-02-19T13:23:59.603Z,100132.00
2023-02-19T13:31:50.187Z,100147.75
2023-02-19T13:46:39.835Z,100141.94
2023-02-19T13:54:01.736Z,100159.53
2023-02-19T14:01:21.905Z,100164.88
2023-02-19T14:08:56.210Z,100171.69
2023-02-19T14:16:30.967Z,100163.44
2023-02-19T14:23:53.968Z,100187.63
2023-02-19T14:31:33.458Z,100200.19
2023-02-19T14:38:54.269Z,100206.28
2023-02-19T14:46:26.240Z,100209.25
2023-02-19T14:53:46.266Z,100231.97
2023-02-19T15:01:05.620Z,100242.16
2023-02-19T15:08:29.156Z,100258.03
2023-02-19T15:15:49.834Z,100260.28
2023-02-19T15:23:09.296Z,100270.66
2023-02-19T15:30:29.694Z,100268.88
2023-02-19T15:37:49.538Z,100280.31
2023-02-19T15:45:12.528Z,100285.41
2023-02-19T15:52:45.806Z,100296.75
2023-02-19T16:00:14.203Z,100319.72
2023-02-19T16:07:33.182Z,100326.88
2023-02-19T16:14:51.761Z,100335.25
2023-02-19T16:22:12.245Z,100347.59
2023-02-19T16:29:32.049Z,100347.00
2023-02-19T16:36:50.226Z,100373.97
2023-02-19T16:44:31.754Z,100386.56
2023-02-19T16:51:49.906Z,100388.31
2023-02-19T16:59:08.400Z,100407.28
2023-02-19T17:06:28.126Z,100423.41
2023-02-19T17:13:47.125Z,100438.41
2023-02-19T17:21:13.134Z,100437.03
2023-02-19T17:28:32.863Z,100452.34
2023-02-19T17:35:51.051Z,100460.13
2023-02-19T17:43:09.589Z,100465.84
2023-02-19T17:50:30.907Z,100488.72
2023-02-19T17:57:50.326Z,100486.72
2023-02-19T18:05:09.041Z,100508.44
2023-02-19T18:12:28.792Z,100507.84
2023-02-19T18:19:47.482Z,100507.97
2023-02-19T18:27:05.641Z,100511.50
2023-02-19T18:34:25.182Z,100525.97
2023-02-19T18:41:48.130Z,100541.34
2023-02-19T18:49:06.290Z,100551.09
2023-02-19T18:56:26.164Z,100560.97
2023-02-19T19:03:44.278Z,100567.19
2023-02-19T19:11:02.658Z,100561.09
2023-02-19T19:18:22.404Z,100568.16
2023-02-19T19:25:40.636Z,100564.28
2023-02-19T19:33:03.636Z,100568.75
2023-02-19T19:40:23.333Z,100579.16
2023-02-19T19:47:41.604Z,100589.44
2023-02-19T19:55:00.149Z,100602.59
2023-02-19T20:02:20.517Z,100611.84
2023-02-19T20:09:38.846Z,100607.66
2023-02-19T20:16:57.688Z,100624.16
2023-02-19T20:24:18.390Z,100627.84
2023-02-19T20:31:36.744Z,100627.44
2023-02-19T20:38:55.054Z,100621.19
2023-02-19T20:46:15.035Z,100637.44
2023-02-19T20:53:33.810Z,100652.44
2023-02-19T21:00:53.566Z,100655.91
2023-02-19T21:08:14.148Z,100667.59
2023-02-19T21:15:32.351Z,100671.13
2023-02-19T21:22:50.569Z,100683.72
2023-02-19T21:30:11.135Z,100693.88
2023-02-19T21:37:29.493Z,100702.88
2023-02-19T21:44:48.103Z,100696.69
2023-02-19T21:52:07.708Z,100703.91
2023-02-19T21:59:25.899Z,100717.13
2023-02-19T22:06:44.276Z,100726.81
2023-02-19T22:14:04.051Z,100726.00
2023-02-19T22:21:23.256Z,100734.75
2023-02-19T22:28:42.404Z,100734.91
2023-02-19T22:36:02.229Z,100727.94
2023-02-19T22:43:20.467Z,100746.81
2023-02-19T22:50:38.692Z,100748.41
2023-02-19T22:57:58.285Z,100743.44
2023-02-19T23:05:16.803Z,100744.63
2023-02-19T23:12:38.021Z,100731.81
2023-02-19T23:19:57.564Z,100730.47
2023-02-19T23:27:15.719Z,100734.75
2023-02-19T23:34:34.009Z,100730.63
2023-02-19T23:41:55.345Z,100715.25
2023-02-19T23:49:13.739Z,100712.28
2023-02-19T23:56:35.030Z,100704.84
